Time;durP1;ratioP1;P1;durP2;ratioP2;P2;SDS_P1;SDS_P2;PMS_P1;PMS_P2;Temp;Humidity;BMP_temperature;BMP_pressure;BME280_temperature;BME280_humidity;BME280_pressure;Samples;Min_cycle;Max_cycle;Signal;HPM_P1;HPM_P2
2021/09/30 00:00:24;;;;;;;3.78;2.15;;;11.70;99.90;;;;;;2080665;28;20018;-68
2021/09/30 00:01:25;;;;;;;3.47;2.17;;;11.70;99.90;;;;;;2085760;28;20021;-68
2021/09/30 00:02:25;;;;;;;3.88;2.30;;;11.70;99.90;;;;;;2085992;28;20108;-69
2021/09/30 00:03:26;;;;;;;3.88;2.10;;;11.70;99.90;;;;;;2080579;28;20030;-68
2021/09/30 00:04:26;;;;;;;4.28;1.95;;;11.70;99.90;;;;;;2080731;28;20017;-68
2021/09/30 00:05:27;;;;;;;5.00;2.22;;;11.60;99.90;;;;;;2080495;28;20032;-67
2021/09/30 00:06:30;;;;;;;3.30;1.83;;;11.70;99.90;;;;;;2079755;28;20024;-68
2021/09/30 00:07:30;;;;;;;3.38;2.10;;;11.60;99.90;;;;;;2079858;28;20140;-68
2021/09/30 00:08:31;;;;;;;5.93;2.10;;;11.70;99.90;;;;;;2079872;28;20044;-68
2021/09/30 00:09:32;;;;;;;6.00;2.10;;;11.60;99.90;;;;;;2080194;28;20025;-68
2021/09/30 00:10:33;;;;;;;8.43;2.33;;;11.60;99.90;;;;;;2080059;28;20029;-68
2021/09/30 00:11:37;;;;;;;5.07;2.38;;;11.60;99.90;;;;;;2086130;28;20029;-68
2021/09/30 00:12:46;;;;;;;3.88;2.10;;;11.60;99.90;;;;;;2087662;28;20439;-68
2021/09/30 00:13:52;;;;;;;4.13;2.28;;;11.60;99.90;;;;;;2086700;28;20574;-68
2021/09/30 00:14:56;;;;;;;3.75;1.83;;;11.60;99.90;;;;;;2081512;28;20051;-68
2021/09/30 00:33:07;;;;;;;5.30;2.63;;;11.50;99.90;;;;;;2081656;28;20041;-68
2021/09/30 00:35:45;;;;;;;6.10;2.55;;;11.50;99.90;;;;;;2062403;28;20828;-68
2021/09/30 00:39:45;;;;;;;5.07;2.08;;;11.50;99.90;;;;;;2088157;28;20028;-68
2021/09/30 00:41:11;;;;;;;5.68;2.33;;;11.50;99.90;;;;;;2080356;28;20071;-68
2021/09/30 00:46:05;;;;;;;5.90;2.00;;;11.60;99.90;;;;;;2083650;28;20048;-70
2021/09/30 00:48:24;;;;;;;8.63;2.45;;;11.60;99.90;;;;;;2087811;28;20056;-68
2021/09/30 00:51:37;;;;;;;4.03;2.03;;;11.60;99.90;;;;;;2084301;28;20473;-68
2021/09/30 00:52:47;;;;;;;6.63;2.15;;;11.60;99.90;;;;;;2080077;28;20100;-68
2021/09/30 01:18:32;;;;;;;5.50;2.22;;;11.60;99.90;;;;;;2081389;28;20021;-67
2021/09/30 01:33:39;;;;;;;4.88;2.50;;;11.60;99.90;;;;;;2084340;28;20040;-67
2021/09/30 01:52:14;;;;;;;6.00;2.92;;;11.50;99.90;;;;;;2080980;28;20296;-69
2021/09/30 01:59:10;;;;;;;;;;;11.60;99.90;;;;;;2079483;28;20037;-69
2021/09/30 02:22:38;;;;;;;8.20;2.40;;;11.50;99.90;;;;;;2083053;28;20088;-70
2021/09/30 02:23:59;;;;;;;6.50;3.03;;;11.50;99.90;;;;;;2092843;28;20487;-69
2021/09/30 02:27:35;;;;;;;3.13;2.08;;;11.40;99.90;;;;;;2082419;28;20101;-70
2021/09/30 02:28:47;;;;;;;6.00;2.58;;;11.50;99.90;;;;;;2082084;28;20026;-69
2021/09/30 02:30:03;;;;;;;5.03;2.10;;;11.40;99.90;;;;;;2082251;28;20026;-69
2021/09/30 02:59:27;;;;;;;3.80;2.50;;;11.30;99.90;;;;;;2086435;28;20075;-69
2021/09/30 03:00:28;;;;;;;9.20;2.88;;;11.30;99.90;;;;;;2085933;28;20055;-69
2021/09/30 03:01:29;;;;;;;4.93;2.40;;;11.30;99.90;;;;;;2088682;28;20124;-70
2021/09/30 03:02:31;;;;;;;4.90;2.10;;;11.30;99.90;;;;;;2089013;28;20020;-69
2021/09/30 03:03:37;;;;;;;4.28;2.50;;;11.40;99.90;;;;;;2089585;28;20032;-70
2021/09/30 03:04:39;;;;;;;6.95;2.60;;;11.30;99.90;;;;;;2089607;28;20020;-69
2021/09/30 03:05:40;;;;;;;7.03;2.40;;;11.30;99.90;;;;;;2089269;28;20560;-69
2021/09/30 03:06:42;;;;;;;5.13;2.30;;;11.30;99.90;;;;;;2089410;28;20039;-69
2021/09/30 03:07:43;;;;;;;4.50;2.00;;;11.40;99.90;;;;;;2089523;28;20025;-69
2021/09/30 03:08:47;;;;;;;6.45;2.15;;;11.40;99.90;;;;;;2088682;28;20025;-69
2021/09/30 03:09:49;;;;;;;6.43;1.92;;;11.40;99.90;;;;;;2089538;28;20036;-70
2021/09/30 03:10:53;;;;;;;8.05;2.45;;;11.40;99.90;;;;;;2083261;28;20030;-70
2021/09/30 03:11:54;;;;;;;6.13;2.30;;;11.40;99.90;;;;;;2080960;28;20021;-70
2021/09/30 03:12:56;;;;;;;3.60;2.00;;;11.40;99.90;;;;;;2080989;28;20108;-70
2021/09/30 03:13:59;;;;;;;5.85;2.00;;;11.40;99.90;;;;;;2084076;28;20040;-69
2021/09/30 03:15:12;;;;;;;6.55;2.58;;;11.40;99.90;;;;;;2080991;28;20056;-69
2021/09/30 03:16:27;;;;;;;4.10;1.95;;;11.40;99.90;;;;;;2080925;28;20076;-69
2021/09/30 03:17:42;;;;;;;7.10;2.42;;;11.40;99.90;;;;;;2080797;28;20104;-69
2021/09/30 03:19:57;;;;;;;8.02;2.50;;;11.40;99.90;;;;;;2080587;28;20442;-70
2021/09/30 03:23:17;;;;;;;5.70;2.05;;;11.30;99.90;;;;;;2089263;28;20021;-70
2021/09/30 03:24:18;;;;;;;6.15;2.40;;;11.30;99.90;;;;;;2081039;28;20216;-69
2021/09/30 03:25:19;;;;;;;5.47;2.05;;;11.30;99.90;;;;;;2080785;28;20357;-69
2021/09/30 03:26:20;;;;;;;6.22;2.45;;;11.30;99.90;;;;;;2080463;28;20365;-70
2021/09/30 03:27:21;;;;;;;6.30;2.70;;;11.30;99.90;;;;;;2080659;28;20025;-69
2021/09/30 03:28:26;;;;;;;3.85;2.13;;;11.30;99.90;;;;;;2079793;28;20032;-69
2021/09/30 03:29:28;;;;;;;6.90;2.83;;;11.30;99.90;;;;;;2081002;28;20045;-69
2021/09/30 03:30:29;;;;;;;7.35;2.60;;;11.30;99.90;;;;;;2082022;28;20033;-69
2021/09/30 03:31:32;;;;;;;4.88;2.13;;;11.30;99.90;;;;;;2080757;28;20458;-70
2021/09/30 03:32:32;;;;;;;7.50;2.72;;;11.30;99.90;;;;;;2080418;28;20090;-69
2021/09/30 03:33:34;;;;;;;4.60;2.30;;;11.30;99.90;;;;;;2080563;28;20025;-70
2021/09/30 03:34:35;;;;;;;6.90;2.90;;;11.30;99.90;;;;;;2080853;28;20053;-69
2021/09/30 03:35:37;;;;;;;5.65;2.67;;;11.30;99.90;;;;;;2080295;28;20032;-69
2021/09/30 03:36:38;;;;;;;6.40;2.25;;;11.30;99.90;;;;;;2080725;28;20030;-70
2021/09/30 03:37:38;;;;;;;5.28;2.30;;;11.30;99.90;;;;;;2084335;28;20113;-69
2021/09/30 03:38:39;;;;;;;8.00;2.78;;;11.30;99.90;;;;;;2082298;28;20064;-69
2021/09/30 03:39:39;;;;;;;4.55;2.42;;;11.30;99.90;;;;;;2088025;28;20369;-69
2021/09/30 03:40:42;;;;;;;5.43;2.40;;;11.30;99.90;;;;;;2088133;28;20100;-69
2021/09/30 03:41:42;;;;;;;5.90;2.22;;;11.30;99.90;;;;;;2085511;28;20025;-69
2021/09/30 03:42:43;;;;;;;5.85;2.40;;;11.30;99.90;;;;;;2088486;28;20028;-70
2021/09/30 03:43:44;;;;;;;12.82;2.80;;;11.30;99.90;;;;;;2080544;28;20032;-69
2021/09/30 03:44:44;;;;;;;6.25;2.45;;;11.30;99.90;;;;;;2083552;28;20037;-69
2021/09/30 03:45:45;;;;;;;7.80;2.80;;;11.30;99.90;;;;;;2088907;28;20600;-69
2021/09/30 03:46:51;;;;;;;6.72;2.30;;;11.30;99.90;;;;;;2088626;28;20085;-69
2021/09/30 03:47:51;;;;;;;5.95;2.83;;;11.30;99.90;;;;;;2088996;28;20041;-69
2021/09/30 03:48:55;;;;;;;6.18;2.28;;;11.40;99.90;;;;;;2088035;28;20466;-69
2021/09/30 03:49:56;;;;;;;9.27;2.45;;;11.30;99.90;;;;;;2088627;28;20048;-69
2021/09/30 03:51:06;;;;;;;7.60;2.50;;;11.30;99.90;;;;;;2080931;28;20041;-69
2021/09/30 03:53:13;;;;;;;5.88;2.33;;;11.20;99.90;;;;;;2080097;28;20056;-70
2021/09/30 03:57:04;;;;;;;7.40;2.80;;;11.20;99.90;;;;;;2082094;28;20029;-69
2021/09/30 03:59:20;;;;;;;6.50;2.88;;;11.10;99.90;;;;;;2084093;28;20028;-69
2021/09/30 04:00:21;;;;;;;7.45;2.72;;;11.10;99.90;;;;;;2083007;28;21749;-70
2021/09/30 04:01:22;;;;;;;6.53;2.58;;;11.10;99.90;;;;;;2081886;28;20056;-70
2021/09/30 04:02:22;;;;;;;6.38;2.78;;;11.10;99.90;;;;;;2080057;28;20421;-70
2021/09/30 04:03:23;;;;;;;6.65;2.47;;;11.10;99.90;;;;;;2095360;28;20090;-69
2021/09/30 04:04:26;;;;;;;6.20;3.05;;;11.20;99.90;;;;;;2091708;28;20040;-69
2021/09/30 04:05:27;;;;;;;7.82;2.78;;;11.20;99.90;;;;;;2085121;28;20401;-70
2021/09/30 04:06:27;;;;;;;6.53;2.92;;;11.20;99.90;;;;;;2086685;28;20042;-70
2021/09/30 04:07:28;;;;;;;8.32;2.72;;;11.10;99.90;;;;;;2083178;28;20094;-70
2021/09/30 04:08:29;;;;;;;6.82;2.75;;;11.20;99.90;;;;;;2086596;28;20527;-69
2021/09/30 04:09:30;;;;;;;5.10;2.53;;;11.20;99.90;;;;;;2087388;28;20391;-69
2021/09/30 04:10:31;;;;;;;7.13;3.00;;;11.10;99.90;;;;;;2086662;28;20060;-69
2021/09/30 04:11:31;;;;;;;4.57;2.70;;;11.10;99.90;;;;;;2087005;28;20107;-70
2021/09/30 04:12:32;;;;;;;10.43;2.97;;;11.10;99.90;;;;;;2088204;28;20029;-69
2021/09/30 04:13:32;;;;;;;7.00;3.28;;;11.10;99.90;;;;;;2088183;28;20041;-70
2021/09/30 04:14:33;;;;;;;8.00;3.30;;;11.10;99.90;;;;;;2080436;28;20029;-70
2021/09/30 04:15:34;;;;;;;5.90;2.92;;;11.10;99.90;;;;;;2078834;28;20561;-70
2021/09/30 04:16:35;;;;;;;8.15;3.08;;;11.10;99.90;;;;;;2079964;28;20055;-69
2021/09/30 04:17:36;;;;;;;6.38;3.10;;;11.10;99.90;;;;;;2080213;28;20099;-69
2021/09/30 04:18:36;;;;;;;6.00;3.03;;;11.10;99.90;;;;;;2079461;28;20025;-69
2021/09/30 04:19:37;;;;;;;8.10;2.83;;;11.10;99.90;;;;;;2080456;28;20052;-69
2021/09/30 04:20:37;;;;;;;7.30;2.95;;;11.10;99.90;;;;;;2084462;28;20033;-69
2021/09/30 04:21:38;;;;;;;8.48;3.03;;;11.10;99.90;;;;;;2086695;28;20041;-69
2021/09/30 04:22:40;;;;;;;6.72;3.03;;;11.10;99.90;;;;;;2080348;28;20079;-70
2021/09/30 04:23:41;;;;;;;8.15;3.00;;;11.10;99.90;;;;;;2080300;28;20087;-69
2021/09/30 04:24:44;;;;;;;6.13;3.10;;;11.10;99.90;;;;;;2085229;28;20087;-69
2021/09/30 04:25:45;;;;;;;5.75;2.97;;;11.20;99.90;;;;;;2084854;28;20034;-69
2021/09/30 04:26:46;;;;;;;6.78;3.53;;;11.10;99.90;;;;;;2084535;28;20060;-69
2021/09/30 04:27:47;;;;;;;8.15;3.08;;;11.10;99.90;;;;;;2080545;28;20044;-69
2021/09/30 04:28:47;;;;;;;7.93;2.78;;;11.10;99.90;;;;;;2082041;28;20453;-69
2021/09/30 04:29:48;;;;;;;11.30;3.42;;;11.10;99.90;;;;;;2080357;28;20037;-69
2021/09/30 04:30:49;;;;;;;7.72;3.53;;;11.10;99.90;;;;;;2082421;28;20029;-69
2021/09/30 04:31:50;;;;;;;7.40;2.90;;;11.10;99.90;;;;;;2080788;28;20035;-70
2021/09/30 04:32:50;;;;;;;6.05;3.38;;;11.10;99.90;;;;;;2080588;28;20025;-70
2021/09/30 04:33:51;;;;;;;8.75;3.08;;;11.10;99.90;;;;;;2085632;28;20459;-69
2021/09/30 04:34:52;;;;;;;10.50;3.85;;;11.10;99.90;;;;;;2080365;28;20020;-69
2021/09/30 04:35:52;;;;;;;7.85;3.03;;;11.00;99.90;;;;;;2082552;28;20045;-69
2021/09/30 04:36:53;;;;;;;10.13;4.00;;;11.00;99.90;;;;;;2083154;28;20048;-69
2021/09/30 04:37:54;;;;;;;7.90;3.03;;;11.00;99.90;;;;;;2080946;28;20600;-69
2021/09/30 04:38:55;;;;;;;6.65;2.63;;;11.00;99.90;;;;;;2081954;28;20444;-69
2021/09/30 04:39:55;;;;;;;9.82;3.22;;;11.00;99.90;;;;;;2081806;28;20032;-69
2021/09/30 04:40:56;;;;;;;6.88;2.70;;;11.00;99.90;;;;;;2085316;28;20021;-70
2021/09/30 04:41:57;;;;;;;6.78;3.40;;;11.00;99.90;;;;;;2082284;28;21293;-69
2021/09/30 04:42:57;;;;;;;7.50;3.17;;;11.00;99.90;;;;;;2081603;28;20018;-69
2021/09/30 04:43:58;;;;;;;8.05;3.42;;;11.00;99.90;;;;;;2080279;28;20112;-69
2021/09/30 04:44:58;;;;;;;9.02;4.00;;;11.00;99.90;;;;;;2082605;28;20029;-69
2021/09/30 04:45:59;;;;;;;9.45;3.63;;;11.00;99.90;;;;;;2080394;28;20381;-69
2021/09/30 04:46:59;;;;;;;10.75;3.72;;;11.00;99.90;;;;;;2083094;28;20021;-70
2021/09/30 04:48:00;;;;;;;11.27;3.22;;;11.00;99.90;;;;;;2085432;28;20028;-69
2021/09/30 04:49:00;;;;;;;6.32;2.80;;;11.00;99.90;;;;;;2080073;28;20401;-69
2021/09/30 04:50:02;;;;;;;5.82;3.10;;;11.00;99.90;;;;;;2083091;28;20054;-69
2021/09/30 04:51:03;;;;;;;5.45;3.38;;;11.00;99.90;;;;;;2084250;28;20478;-69
2021/09/30 04:52:03;;;;;;;11.38;3.50;;;11.00;99.90;;;;;;2081618;28;20465;-69
2021/09/30 04:53:04;;;;;;;7.68;2.90;;;11.00;99.90;;;;;;2081622;28;20055;-69
2021/09/30 04:54:05;;;;;;;6.30;3.13;;;11.00;99.90;;;;;;2083490;28;20032;-69
2021/09/30 04:55:06;;;;;;;10.27;3.63;;;11.00;99.90;;;;;;2082861;28;20049;-69
2021/09/30 04:56:06;;;;;;;7.40;3.50;;;11.00;99.90;;;;;;2081070;28;20021;-69
2021/09/30 04:57:07;;;;;;;5.63;3.08;;;11.00;99.90;;;;;;2083360;28;20032;-69
2021/09/30 04:58:07;;;;;;;12.00;3.72;;;11.00;99.90;;;;;;2082525;28;20404;-69
2021/09/30 04:59:08;;;;;;;9.60;3.13;;;11.00;99.90;;;;;;2082429;28;20025;-69
2021/09/30 05:00:09;;;;;;;10.02;3.65;;;11.00;99.90;;;;;;2084421;28;20026;-69
2021/09/30 05:01:10;;;;;;;6.32;3.30;;;11.00;99.90;;;;;;2082505;28;20037;-69
2021/09/30 05:02:11;;;;;;;9.23;3.53;;;11.00;99.90;;;;;;2082324;28;20446;-69
2021/09/30 05:03:11;;;;;;;5.57;3.30;;;11.00;99.90;;;;;;2084850;28;20095;-69
2021/09/30 05:04:12;;;;;;;6.20;2.97;;;11.00;99.90;;;;;;2083048;28;20025;-69
2021/09/30 05:05:14;;;;;;;10.45;3.30;;;11.00;99.90;;;;;;2082112;28;20062;-69
2021/09/30 05:06:14;;;;;;;7.32;3.30;;;11.00;99.90;;;;;;2079634;28;20013;-69
2021/09/30 05:07:15;;;;;;;9.02;3.70;;;11.00;99.90;;;;;;2080461;28;20086;-69
2021/09/30 05:08:16;;;;;;;9.27;3.15;;;11.00;99.90;;;;;;2080667;28;20021;-69
2021/09/30 05:09:18;;;;;;;9.73;3.40;;;10.90;99.90;;;;;;2081823;28;20087;-69
2021/09/30 05:10:20;;;;;;;8.50;3.38;;;10.90;99.90;;;;;;2080855;28;20017;-69
2021/09/30 05:11:20;;;;;;;10.15;3.72;;;10.90;99.90;;;;;;2083071;28;20476;-69
2021/09/30 05:12:22;;;;;;;7.68;3.28;;;11.00;99.90;;;;;;2083133;28;20029;-69
2021/09/30 05:13:25;;;;;;;9.73;3.78;;;10.90;99.90;;;;;;2081318;28;20489;-69
2021/09/30 05:14:25;;;;;;;15.88;3.90;;;10.90;99.90;;;;;;2082458;28;20052;-69
2021/09/30 05:15:26;;;;;;;8.73;3.45;;;10.90;99.90;;;;;;2080393;28;20057;-69
2021/09/30 05:16:26;;;;;;;8.80;4.10;;;10.90;99.90;;;;;;2080051;28;20051;-69
2021/09/30 05:17:27;;;;;;;6.05;3.25;;;10.90;99.90;;;;;;2080516;28;20025;-69
2021/09/30 05:18:28;;;;;;;11.13;3.50;;;10.90;99.90;;;;;;2080876;28;20017;-69
2021/09/30 05:19:29;;;;;;;9.88;3.38;;;10.90;99.90;;;;;;2085422;28;20029;-69
2021/09/30 05:20:29;;;;;;;9.10;3.42;;;10.90;99.90;;;;;;2086361;28;20017;-69
2021/09/30 05:21:30;;;;;;;10.10;3.50;;;10.90;99.90;;;;;;2082699;28;20048;-69
2021/09/30 05:22:30;;;;;;;9.60;3.83;;;10.90;99.90;;;;;;2080932;28;20026;-69
2021/09/30 05:23:31;;;;;;;8.45;3.25;;;10.90;99.90;;;;;;2082844;28;20071;-69
2021/09/30 05:24:32;;;;;;;5.40;2.88;;;10.90;99.90;;;;;;2082313;28;20079;-69
2021/09/30 05:25:33;;;;;;;6.07;2.80;;;10.90;99.90;;;;;;2079560;28;20458;-69
2021/09/30 05:26:33;;;;;;;12.10;3.75;;;10.90;99.90;;;;;;2079520;28;20064;-69
2021/09/30 05:27:34;;;;;;;11.02;3.72;;;10.90;99.90;;;;;;2080194;28;20090;-69
2021/09/30 05:28:35;;;;;;;9.25;3.58;;;10.90;99.90;;;;;;2082801;28;20037;-69
2021/09/30 05:29:36;;;;;;;6.65;3.33;;;10.90;99.90;;;;;;2080959;28;20037;-69
2021/09/30 05:30:36;;;;;;;10.38;3.45;;;10.90;99.90;;;;;;2084147;28;20029;-69
2021/09/30 05:31:37;;;;;;;8.75;3.47;;;10.90;99.90;;;;;;2081439;28;20033;-69
2021/09/30 05:32:37;;;;;;;10.80;4.15;;;10.90;99.90;;;;;;2082237;28;20035;-69
2021/09/30 05:33:38;;;;;;;6.95;3.72;;;10.90;99.90;;;;;;2080065;28;20036;-69
2021/09/30 05:34:41;;;;;;;9.00;3.42;;;10.90;99.90;;;;;;2079746;28;20549;-69
2021/09/30 05:35:41;;;;;;;9.02;3.40;;;10.90;99.90;;;;;;2079606;28;20466;-69
2021/09/30 05:36:42;;;;;;;9.50;3.60;;;10.90;99.90;;;;;;2082317;28;20606;-69
2021/09/30 05:37:43;;;;;;;11.07;3.67;;;10.90;99.90;;;;;;2079404;28;20060;-69
2021/09/30 05:38:43;;;;;;;7.38;3.35;;;10.90;99.90;;;;;;2084519;28;20413;-69
2021/09/30 05:39:44;;;;;;;7.93;3.45;;;10.90;99.90;;;;;;2082191;28;20911;-69
2021/09/30 05:40:48;;;;;;;10.45;3.47;;;10.90;99.90;;;;;;2078587;28;20036;-69
2021/09/30 05:41:49;;;;;;;7.18;2.88;;;10.90;99.90;;;;;;2081624;28;20037;-69
2021/09/30 05:42:53;;;;;;;7.80;3.00;;;10.90;99.90;;;;;;2081586;28;20056;-69
2021/09/30 05:43:57;;;;;;;10.38;3.28;;;10.80;99.90;;;;;;2080127;28;20035;-69
2021/09/30 05:45:05;;;;;;;11.68;4.15;;;10.80;99.90;;;;;;2081147;28;20103;-68
2021/09/30 05:46:08;;;;;;;8.15;3.63;;;10.80;99.90;;;;;;2080609;28;20465;-69
2021/09/30 05:47:09;;;;;;;7.88;3.40;;;10.80;99.90;;;;;;2082047;28;20107;-69
2021/09/30 05:48:10;;;;;;;10.93;3.92;;;10.80;99.90;;;;;;2080253;28;20083;-69
2021/09/30 05:49:11;;;;;;;9.50;3.58;;;10.80;99.90;;;;;;2081310;28;20365;-69
2021/09/30 05:50:13;;;;;;;9.63;3.60;;;10.80;99.90;;;;;;2081884;28;20052;-69
2021/09/30 05:51:13;;;;;;;10.73;3.50;;;10.80;99.90;;;;;;2081012;28;20095;-69
2021/09/30 05:52:14;;;;;;;13.25;3.58;;;10.80;99.90;;;;;;2079522;28;20603;-69
2021/09/30 05:53:16;;;;;;;9.38;3.88;;;10.80;99.90;;;;;;2079867;28;20018;-69
2021/09/30 05:54:16;;;;;;;8.95;3.72;;;10.80;99.90;;;;;;2081513;28;20038;-69
2021/09/30 05:55:17;;;;;;;11.65;3.35;;;10.80;99.90;;;;;;2082752;28;20096;-69
2021/09/30 05:56:18;;;;;;;8.27;3.40;;;10.80;99.90;;;;;;2079743;28;20029;-69
2021/09/30 05:57:19;;;;;;;8.88;3.70;;;10.80;99.90;;;;;;2082147;28;20029;-69
2021/09/30 05:58:19;;;;;;;6.25;3.10;;;10.80;99.90;;;;;;2082964;28;20036;-69
2021/09/30 05:59:21;;;;;;;8.57;3.83;;;10.90;99.90;;;;;;2083837;28;20407;-69
2021/09/30 06:00:37;;;;;;;8.13;3.63;;;10.90;99.90;;;;;;2082294;28;20035;-69
2021/09/30 06:09:36;;;;;;;9.75;3.45;;;10.80;99.90;;;;;;2082198;28;20033;-69
2021/09/30 06:10:32;;;;;;;7.68;2.95;;;10.80;99.90;;;;;;2079873;28;20521;-69
2021/09/30 06:11:56;;;;;;;7.70;2.97;;;10.80;99.90;;;;;;2080921;28;20061;-69
2021/09/30 06:13:08;;;;;;;6.43;3.10;;;10.80;99.90;;;;;;2080147;28;20111;-69
2021/09/30 06:14:19;;;;;;;7.82;3.67;;;10.80;99.90;;;;;;2080209;28;20053;-69
2021/09/30 06:15:28;;;;;;;8.63;3.00;;;10.80;99.90;;;;;;2083156;28;20014;-69
2021/09/30 06:16:31;;;;;;;6.15;3.33;;;10.80;99.90;;;;;;2081504;28;20746;-69
2021/09/30 06:17:31;;;;;;;9.65;3.20;;;10.80;99.90;;;;;;2086905;28;20040;-69
2021/09/30 06:18:32;;;;;;;12.98;3.67;;;10.90;99.90;;;;;;2083834;28;20028;-69
2021/09/30 06:19:32;;;;;;;8.30;3.10;;;10.90;99.90;;;;;;2079727;28;20025;-69
2021/09/30 06:20:34;;;;;;;11.02;3.50;;;10.90;99.90;;;;;;2079062;28;20401;-69
2021/09/30 06:21:35;;;;;;;7.60;3.80;;;10.90;99.90;;;;;;2079471;28;20037;-69
2021/09/30 06:22:35;;;;;;;5.43;3.20;;;10.90;99.90;;;;;;2079850;28;20482;-69
2021/09/30 06:23:36;;;;;;;11.32;3.70;;;10.90;99.90;;;;;;2082848;28;20053;-69
2021/09/30 06:24:37;;;;;;;9.07;3.65;;;10.90;99.90;;;;;;2081804;28;20527;-69
2021/09/30 06:25:38;;;;;;;8.98;3.55;;;11.00;99.90;;;;;;2082355;28;20410;-69
2021/09/30 06:26:39;;;;;;;7.95;3.70;;;11.00;99.90;;;;;;2081328;28;20034;-69
2021/09/30 06:27:39;;;;;;;13.32;3.95;;;11.00;99.90;;;;;;2084455;28;20021;-69
2021/09/30 06:28:40;;;;;;;8.05;3.30;;;11.00;99.90;;;;;;2082747;28;20037;-69
2021/09/30 06:29:40;;;;;;;7.68;3.22;;;11.00;99.90;;;;;;2087769;28;20120;-69
2021/09/30 06:30:41;;;;;;;7.85;3.60;;;11.10;99.90;;;;;;2079849;28;20342;-69
2021/09/30 06:31:42;;;;;;;7.57;3.47;;;11.10;99.90;;;;;;2079566;28;20028;-69
2021/09/30 06:32:43;;;;;;;9.20;3.45;;;11.10;99.90;;;;;;2079671;28;20037;-69
2021/09/30 06:33:43;;;;;;;7.50;3.25;;;11.10;99.90;;;;;;2080529;28;20112;-69
2021/09/30 06:34:44;;;;;;;4.40;2.80;;;11.10;99.90;;;;;;2086675;28;20108;-69
2021/09/30 06:35:44;;;;;;;7.45;3.38;;;11.20;99.90;;;;;;2079419;28;20474;-69
2021/09/30 06:36:45;;;;;;;11.93;3.78;;;11.20;99.90;;;;;;2082870;28;20033;-69
2021/09/30 06:37:46;;;;;;;8.95;3.45;;;11.20;99.90;;;;;;2083270;28;20025;-69
2021/09/30 06:38:46;;;;;;;8.80;2.95;;;11.20;99.90;;;;;;2085755;28;20029;-69
2021/09/30 06:39:47;;;;;;;7.63;3.42;;;11.30;99.90;;;;;;2085144;28;20466;-69
2021/09/30 06:40:48;;;;;;;7.63;3.63;;;11.30;99.90;;;;;;2083311;28;20040;-69
2021/09/30 06:41:48;;;;;;;7.38;2.90;;;11.30;99.90;;;;;;2083652;28;20041;-69
2021/09/30 06:42:49;;;;;;;7.63;3.03;;;11.30;99.90;;;;;;2086416;28;20492;-69
2021/09/30 06:43:49;;;;;;;7.18;3.55;;;11.40;99.90;;;;;;2079635;28;20025;-69
2021/09/30 06:44:51;;;;;;;8.85;3.65;;;11.40;99.90;;;;;;2080824;28;20037;-69
2021/09/30 06:45:52;;;;;;;9.95;3.60;;;11.40;99.90;;;;;;2084166;28;20464;-69
2021/09/30 06:46:53;;;;;;;10.10;3.70;;;11.50;99.90;;;;;;2083396;28;20087;-69
2021/09/30 06:47:54;;;;;;;8.48;3.50;;;11.50;99.90;;;;;;2088321;28;20112;-69
2021/09/30 06:48:54;;;;;;;9.73;3.47;;;11.50;99.90;;;;;;2079242;28;20033;-69
2021/09/30 06:49:55;;;;;;;9.10;3.63;;;11.60;99.90;;;;;;2079372;28;20135;-69
2021/09/30 06:50:55;;;;;;;10.20;3.70;;;11.60;99.90;;;;;;2079405;28;20030;-69
2021/09/30 06:51:56;;;;;;;8.48;3.28;;;11.70;99.90;;;;;;2079700;28;20485;-69
2021/09/30 06:52:57;;;;;;;11.30;3.95;;;11.70;99.90;;;;;;2085691;28;20520;-69
2021/09/30 06:53:57;;;;;;;6.38;3.10;;;11.70;99.90;;;;;;2082461;28;20055;-69
2021/09/30 06:54:58;;;;;;;12.10;3.45;;;11.70;99.90;;;;;;2082798;28;20529;-69
2021/09/30 06:56:05;;;;;;;8.43;3.60;;;11.80;99.90;;;;;;2084806;28;20546;-69
2021/09/30 06:57:06;;;;;;;9.40;3.63;;;11.80;99.90;;;;;;2082251;28;20036;-69
2021/09/30 06:58:08;;;;;;;10.32;3.55;;;11.80;99.90;;;;;;2080998;28;20037;-69
2021/09/30 06:59:15;;;;;;;12.95;4.13;;;11.80;99.90;;;;;;2083661;28;20030;-69
2021/09/30 07:00:16;;;;;;;12.95;4.05;;;11.90;99.90;;;;;;2080651;28;20017;-70
2021/09/30 07:01:17;;;;;;;8.75;3.45;;;11.90;99.90;;;;;;2081189;28;20064;-69
2021/09/30 07:02:22;;;;;;;9.27;3.70;;;12.00;99.90;;;;;;2080945;28;20071;-69
2021/09/30 07:03:24;;;;;;;7.75;3.03;;;12.00;99.90;;;;;;2083091;28;20473;-69
2021/09/30 07:04:24;;;;;;;8.63;3.60;;;12.00;99.90;;;;;;2083302;28;20036;-69
2021/09/30 07:05:25;;;;;;;9.32;3.40;;;12.00;99.90;;;;;;2093329;28;20461;-69
2021/09/30 07:06:26;;;;;;;7.03;3.15;;;12.10;99.90;;;;;;2084165;28;20071;-69
2021/09/30 07:07:27;;;;;;;9.10;3.40;;;12.10;99.90;;;;;;2085837;28;20428;-69
2021/09/30 07:08:27;;;;;;;12.93;4.03;;;12.10;99.90;;;;;;2082117;28;20123;-69
2021/09/30 07:09:30;;;;;;;7.47;3.47;;;12.20;99.90;;;;;;2081309;28;20021;-69
2021/09/30 07:10:31;;;;;;;9.43;3.50;;;12.20;99.90;;;;;;2081010;28;20028;-69
2021/09/30 07:11:32;;;;;;;9.68;3.63;;;12.20;99.90;;;;;;2080534;28;20026;-69
2021/09/30 07:12:32;;;;;;;8.20;3.55;;;12.30;99.90;;;;;;2087236;28;20473;-69
2021/09/30 07:13:33;;;;;;;13.30;3.92;;;12.30;99.90;;;;;;2088445;28;20135;-69
2021/09/30 07:14:34;;;;;;;13.18;3.80;;;12.30;99.90;;;;;;2087678;28;20029;-69
2021/09/30 07:15:34;;;;;;;11.60;3.92;;;12.40;99.90;;;;;;2084107;28;20698;-69
2021/09/30 07:16:35;;;;;;;9.98;3.97;;;12.40;99.90;;;;;;2081154;28;20444;-70
2021/09/30 07:17:35;;;;;;;7.60;3.92;;;12.40;99.90;;;;;;2083188;28;20049;-69
2021/09/30 07:18:36;;;;;;;10.23;4.07;;;12.50;99.90;;;;;;2086054;28;20496;-69
2021/09/30 07:19:37;;;;;;;11.40;4.22;;;12.50;99.90;;;;;;2080260;28;20063;-69
2021/09/30 07:20:38;;;;;;;6.78;4.05;;;12.50;99.90;;;;;;2081064;28;20025;-69
2021/09/30 07:21:39;;;;;;;8.63;3.70;;;12.50;99.90;;;;;;2080972;28;20029;-69
2021/09/30 07:22:39;;;;;;;9.57;3.90;;;12.60;99.90;;;;;;2080923;28;20021;-69
2021/09/30 07:23:40;;;;;;;8.52;3.67;;;12.60;99.90;;;;;;2084449;28;20104;-69
2021/09/30 07:24:41;;;;;;;5.90;3.30;;;12.60;99.90;;;;;;2089315;28;20134;-69
2021/09/30 07:25:42;;;;;;;10.65;4.10;;;12.70;99.90;;;;;;2082327;28;20022;-69
2021/09/30 07:26:43;;;;;;;9.77;3.92;;;12.70;99.90;;;;;;2080865;28;20029;-69
2021/09/30 07:27:43;;;;;;;8.63;3.80;;;12.80;99.90;;;;;;2080856;28;20025;-69
2021/09/30 07:28:44;;;;;;;10.75;3.45;;;12.80;99.90;;;;;;2082129;28;20390;-69
2021/09/30 07:29:45;;;;;;;10.00;3.75;;;12.80;99.90;;;;;;2080636;28;20044;-69
2021/09/30 07:30:47;;;;;;;9.25;3.85;;;12.80;99.90;;;;;;2080604;28;20025;-69
2021/09/30 07:31:47;;;;;;;8.82;3.70;;;12.80;99.90;;;;;;2080575;28;20030;-70
2021/09/30 07:32:48;;;;;;;9.02;4.25;;;12.90;99.90;;;;;;2081319;28;20033;-69
2021/09/30 07:33:48;;;;;;;8.70;4.38;;;12.90;99.90;;;;;;2081230;28;20033;-69
2021/09/30 07:34:49;;;;;;;8.98;4.00;;;12.90;99.90;;;;;;2080648;28;20065;-69
2021/09/30 07:35:49;;;;;;;11.68;4.28;;;12.90;99.90;;;;;;2080607;28;20069;-69
2021/09/30 07:36:51;;;;;;;9.13;3.95;;;13.00;99.90;;;;;;2085201;28;20083;-69
2021/09/30 07:37:55;;;;;;;7.30;3.80;;;13.00;99.90;;;;;;2084005;28;20021;-69
2021/09/30 07:38:56;;;;;;;6.80;3.72;;;13.00;99.90;;;;;;2086120;28;20025;-69
2021/09/30 07:39:56;;;;;;;7.45;3.42;;;13.10;99.90;;;;;;2086411;28;20032;-69
2021/09/30 07:40:57;;;;;;;9.30;4.00;;;13.10;99.90;;;;;;2088746;28;20029;-69
2021/09/30 07:41:58;;;;;;;11.07;3.97;;;13.10;99.90;;;;;;2086952;28;20033;-70
2021/09/30 07:42:59;;;;;;;12.95;3.90;;;13.10;99.90;;;;;;2084277;28;20559;-69
2021/09/30 07:44:03;;;;;;;7.30;3.33;;;13.20;99.90;;;;;;2080863;28;20038;-69
2021/09/30 07:45:04;;;;;;;9.13;3.53;;;13.20;99.90;;;;;;2080976;28;20026;-69
2021/09/30 07:46:04;;;;;;;8.80;3.80;;;13.20;99.90;;;;;;2080614;28;20112;-69
2021/09/30 07:47:05;;;;;;;12.80;3.60;;;13.30;99.90;;;;;;2084456;28;20033;-69
2021/09/30 07:48:06;;;;;;;12.52;3.70;;;13.30;99.90;;;;;;2085804;28;20060;-69
2021/09/30 07:49:07;;;;;;;10.63;3.88;;;13.40;99.90;;;;;;2083920;28;20377;-69
2021/09/30 07:50:09;;;;;;;7.95;3.50;;;13.40;99.90;;;;;;2086124;28;20056;-69
2021/09/30 07:51:10;;;;;;;11.38;3.85;;;13.40;99.90;;;;;;2086910;28;20036;-69
2021/09/30 07:52:10;;;;;;;11.57;4.30;;;13.50;99.90;;;;;;2080141;28;20031;-69
2021/09/30 07:53:14;;;;;;;8.90;3.08;;;13.50;99.90;;;;;;2079645;28;20033;-69
2021/09/30 07:54:14;;;;;;;6.75;2.90;;;13.60;99.90;;;;;;2080285;28;20010;-69
2021/09/30 07:55:15;;;;;;;7.90;3.30;;;13.60;99.90;;;;;;2086578;28;20025;-69
2021/09/30 07:56:16;;;;;;;10.57;3.63;;;13.70;99.90;;;;;;2087586;28;20021;-69
2021/09/30 07:57:17;;;;;;;8.25;3.25;;;13.70;99.90;;;;;;2087712;28;20495;-69
2021/09/30 07:58:17;;;;;;;8.75;3.25;;;13.80;99.90;;;;;;2079567;28;20041;-70
2021/09/30 07:59:18;;;;;;;6.55;3.15;;;13.80;99.90;;;;;;2084135;28;20041;-69
2021/09/30 08:00:18;;;;;;;13.45;3.72;;;13.90;99.90;;;;;;2086594;28;20029;-69
2021/09/30 08:01:20;;;;;;;10.32;3.40;;;13.90;99.90;;;;;;2083780;28;20039;-69
2021/09/30 08:02:20;;;;;;;7.10;2.92;;;14.00;99.90;;;;;;2080452;28;20018;-69